sensor_id;sensor_type;location;lat;lon;timestamp;pressure;altitude;pressure_sealevel;temperature;humidity
34065;BME280;20339;49.754;20.158;2023-03-16T00:02:13;96710.89;;;0.69;69.25
34065;BME280;20339;49.754;20.158;2023-03-16T00:04:43;96708.66;;;0.68;69.11
34065;BME280;20339;49.754;20.158;2023-03-16T00:07:14;96712.20;;;0.66;69.10
34065;BME280;20339;49.754;20.158;2023-03-16T00:09:44;96712.51;;;0.64;69.59
34065;BME280;20339;49.754;20.158;2023-03-16T00:12:15;96714.83;;;0.61;69.81
34065;BME280;20339;49.754;20.158;2023-03-16T00:14:45;96711.17;;;0.60;69.79
34065;BME280;20339;49.754;20.158;2023-03-16T00:17:17;96715.05;;;0.58;69.88
34065;BME280;20339;49.754;20.158;2023-03-16T00:19:47;96719.40;;;0.57;70.10
34065;BME280;20339;49.754;20.158;2023-03-16T00:22:22;96721.44;;;0.56;70.17
34065;BME280;20339;49.754;20.158;2023-03-16T00:24:52;96718.23;;;0.52;70.25
34065;BME280;20339;49.754;20.158;2023-03-16T00:27:22;96721.41;;;0.51;70.59
34065;BME280;20339;49.754;20.158;2023-03-16T00:29:52;96727.23;;;0.49;70.80
34065;BME280;20339;49.754;20.158;2023-03-16T00:32:24;96732.21;;;0.47;70.93
34065;BME280;20339;49.754;20.158;2023-03-16T00:34:53;96739.85;;;0.46;70.76
34065;BME280;20339;49.754;20.158;2023-03-16T00:37:23;96738.64;;;0.46;71.15
34065;BME280;20339;49.754;20.158;2023-03-16T00:39:53;96738.65;;;0.45;71.00
34065;BME280;20339;49.754;20.158;2023-03-16T00:42:24;96741.08;;;0.44;71.13
34065;BME280;20339;49.754;20.158;2023-03-16T00:44:54;96736.16;;;0.42;71.12
34065;BME280;20339;49.754;20.158;2023-03-16T00:47:24;96740.91;;;0.41;71.22
34065;BME280;20339;49.754;20.158;2023-03-16T00:49:55;96738.98;;;0.40;71.52
34065;BME280;20339;49.754;20.158;2023-03-16T00:52:25;96740.98;;;0.35;71.52
34065;BME280;20339;49.754;20.158;2023-03-16T00:54:55;96744.32;;;0.32;71.39
34065;BME280;20339;49.754;20.158;2023-03-16T00:57:25;96749.58;;;0.28;71.91
34065;BME280;20339;49.754;20.158;2023-03-16T00:59:54;96755.33;;;0.24;71.87
34065;BME280;20339;49.754;20.158;2023-03-16T01:02:24;96748.89;;;0.22;72.18
34065;BME280;20339;49.754;20.158;2023-03-16T01:04:56;96755.00;;;0.20;72.03
34065;BME280;20339;49.754;20.158;2023-03-16T01:07:30;96756.92;;;0.19;72.47
34065;BME280;20339;49.754;20.158;2023-03-16T01:09:59;96763.88;;;0.17;72.37
34065;BME280;20339;49.754;20.158;2023-03-16T01:12:29;96764.13;;;0.16;72.44
34065;BME280;20339;49.754;20.158;2023-03-16T01:14:58;96764.54;;;0.14;72.70
34065;BME280;20339;49.754;20.158;2023-03-16T01:17:28;96767.02;;;0.10;72.95
34065;BME280;20339;49.754;20.158;2023-03-16T01:20:02;96765.21;;;0.07;73.42
34065;BME280;20339;49.754;20.158;2023-03-16T01:22:35;96768.41;;;0.03;73.51
34065;BME280;20339;49.754;20.158;2023-03-16T01:25:05;96777.11;;;-0.02;73.40
34065;BME280;20339;49.754;20.158;2023-03-16T01:27:34;96780.66;;;-0.06;73.96
34065;BME280;20339;49.754;20.158;2023-03-16T01:30:05;96779.52;;;-0.09;73.49
34065;BME280;20339;49.754;20.158;2023-03-16T01:32:34;96781.29;;;-0.12;73.71
34065;BME280;20339;49.754;20.158;2023-03-16T01:35:04;96784.19;;;-0.15;74.05
34065;BME280;20339;49.754;20.158;2023-03-16T01:37:34;96783.85;;;-0.17;73.98
34065;BME280;20339;49.754;20.158;2023-03-16T01:40:04;96786.39;;;-0.19;74.81
34065;BME280;20339;49.754;20.158;2023-03-16T01:42:41;96781.08;;;-0.21;74.62
34065;BME280;20339;49.754;20.158;2023-03-16T01:47:59;96780.31;;;-0.21;75.38
34065;BME280;20339;49.754;20.158;2023-03-16T01:50:29;96783.45;;;-0.23;75.62
34065;BME280;20339;49.754;20.158;2023-03-16T01:52:58;96781.73;;;-0.23;76.10
34065;BME280;20339;49.754;20.158;2023-03-16T01:55:30;96783.20;;;-0.22;75.91
34065;BME280;20339;49.754;20.158;2023-03-16T01:57:59;96785.77;;;-0.22;76.05
34065;BME280;20339;49.754;20.158;2023-03-16T02:00:29;96789.25;;;-0.22;76.10
34065;BME280;20339;49.754;20.158;2023-03-16T02:03:01;96791.73;;;-0.22;76.17
34065;BME280;20339;49.754;20.158;2023-03-16T02:05:34;96789.45;;;-0.22;76.48
34065;BME280;20339;49.754;20.158;2023-03-16T02:08:07;96795.92;;;-0.23;76.73
34065;BME280;20339;49.754;20.158;2023-03-16T02:10:39;96799.25;;;-0.25;76.78
34065;BME280;20339;49.754;20.158;2023-03-16T02:13:09;96797.38;;;-0.25;77.07
34065;BME280;20339;49.754;20.158;2023-03-16T02:15:38;96801.98;;;-0.27;77.19
34065;BME280;20339;49.754;20.158;2023-03-16T02:18:08;96802.85;;;-0.29;77.13
34065;BME280;20339;49.754;20.158;2023-03-16T02:20:38;96799.65;;;-0.31;77.25
34065;BME280;20339;49.754;20.158;2023-03-16T02:23:11;96806.64;;;-0.33;77.29
34065;BME280;20339;49.754;20.158;2023-03-16T02:25:46;96809.89;;;-0.35;77.21
34065;BME280;20339;49.754;20.158;2023-03-16T02:28:20;96815.75;;;-0.36;77.29
34065;BME280;20339;49.754;20.158;2023-03-16T02:30:53;96821.84;;;-0.38;77.32
34065;BME280;20339;49.754;20.158;2023-03-16T02:33:23;96825.81;;;-0.42;77.33
34065;BME280;20339;49.754;20.158;2023-03-16T02:35:55;96824.77;;;-0.45;77.54
34065;BME280;20339;49.754;20.158;2023-03-16T02:38:25;96825.98;;;-0.48;77.73
34065;BME280;20339;49.754;20.158;2023-03-16T02:40:56;96828.75;;;-0.51;77.87
34065;BME280;20339;49.754;20.158;2023-03-16T02:43:29;96829.80;;;-0.52;78.13
34065;BME280;20339;49.754;20.158;2023-03-16T02:46:10;96828.20;;;-0.53;78.45
34065;BME280;20339;49.754;20.158;2023-03-16T02:48:42;96834.28;;;-0.56;78.39
34065;BME280;20339;49.754;20.158;2023-03-16T02:51:12;96833.68;;;-0.61;78.91
34065;BME280;20339;49.754;20.158;2023-03-16T02:53:41;96834.05;;;-0.65;78.81
34065;BME280;20339;49.754;20.158;2023-03-16T02:56:11;96833.34;;;-0.69;79.04
34065;BME280;20339;49.754;20.158;2023-03-16T02:58:41;96840.09;;;-0.73;79.04
34065;BME280;20339;49.754;20.158;2023-03-16T03:01:10;96842.51;;;-0.75;79.43
34065;BME280;20339;49.754;20.158;2023-03-16T03:03:40;96844.87;;;-0.77;79.55
34065;BME280;20339;49.754;20.158;2023-03-16T03:06:10;96847.67;;;-0.79;79.76
34065;BME280;20339;49.754;20.158;2023-03-16T03:08:40;96846.41;;;-0.84;79.93
34065;BME280;20339;49.754;20.158;2023-03-16T03:11:10;96849.54;;;-0.87;80.11
34065;BME280;20339;49.754;20.158;2023-03-16T03:13:40;96853.55;;;-0.88;80.38
34065;BME280;20339;49.754;20.158;2023-03-16T03:16:11;96856.08;;;-0.90;80.50
34065;BME280;20339;49.754;20.158;2023-03-16T03:18:41;96858.68;;;-0.93;80.50
34065;BME280;20339;49.754;20.158;2023-03-16T03:21:10;96862.08;;;-0.95;80.37
34065;BME280;20339;49.754;20.158;2023-03-16T03:23:41;96865.17;;;-0.96;80.64
34065;BME280;20339;49.754;20.158;2023-03-16T03:26:13;96867.30;;;-0.96;80.66
34065;BME280;20339;49.754;20.158;2023-03-16T03:28:43;96869.61;;;-0.98;80.55
34065;BME280;20339;49.754;20.158;2023-03-16T03:31:17;96869.88;;;-0.99;80.93
34065;BME280;20339;49.754;20.158;2023-03-16T03:33:47;96877.12;;;-1.00;80.53
34065;BME280;20339;49.754;20.158;2023-03-16T03:36:16;96880.63;;;-1.00;80.88
34065;BME280;20339;49.754;20.158;2023-03-16T03:38:46;96887.57;;;-1.00;80.86
34065;BME280;20339;49.754;20.158;2023-03-16T03:41:16;96891.40;;;-1.02;80.46
34065;BME280;20339;49.754;20.158;2023-03-16T03:43:46;96893.16;;;-1.03;80.77
34065;BME280;20339;49.754;20.158;2023-03-16T03:46:15;96895.37;;;-1.04;80.64
34065;BME280;20339;49.754;20.158;2023-03-16T03:48:45;96894.05;;;-1.07;81.10
34065;BME280;20339;49.754;20.158;2023-03-16T03:51:14;96894.09;;;-1.07;80.64
34065;BME280;20339;49.754;20.158;2023-03-16T03:53:44;96897.69;;;-1.08;80.97
34065;BME280;20339;49.754;20.158;2023-03-16T03:56:13;96895.98;;;-1.10;80.94
34065;BME280;20339;49.754;20.158;2023-03-16T03:58:42;96902.77;;;-1.07;80.96
34065;BME280;20339;49.754;20.158;2023-03-16T04:01:12;96903.30;;;-1.06;80.81
34065;BME280;20339;49.754;20.158;2023-03-16T04:03:42;96901.66;;;-1.08;81.31
34065;BME280;20339;49.754;20.158;2023-03-16T04:06:14;96901.81;;;-1.10;81.42
34065;BME280;20339;49.754;20.158;2023-03-16T04:08:43;96903.54;;;-1.11;81.31
34065;BME280;20339;49.754;20.158;2023-03-16T04:11:13;96904.26;;;-1.11;80.96
34065;BME280;20339;49.754;20.158;2023-03-16T04:13:43;96902.96;;;-1.11;81.43
34065;BME280;20339;49.754;20.158;2023-03-16T04:16:12;96904.50;;;-1.14;81.24
34065;BME280;20339;49.754;20.158;2023-03-16T04:18:43;96908.83;;;-1.14;81.54
34065;BME280;20339;49.754;20.158;2023-03-16T04:21:13;96911.46;;;-1.18;81.77
34065;BME280;20339;49.754;20.158;2023-03-16T04:23:44;96919.23;;;-1.21;81.70
34065;BME280;20339;49.754;20.158;2023-03-16T04:26:13;96921.15;;;-1.21;81.90
34065;BME280;20339;49.754;20.158;2023-03-16T04:28:43;96919.83;;;-1.19;81.94
34065;BME280;20339;49.754;20.158;2023-03-16T04:31:15;96921.43;;;-1.16;82.13
34065;BME280;20339;49.754;20.158;2023-03-16T04:33:45;96924.60;;;-1.15;81.97
34065;BME280;20339;49.754;20.158;2023-03-16T04:36:15;96926.84;;;-1.15;81.87
34065;BME280;20339;49.754;20.158;2023-03-16T04:38:44;96930.52;;;-1.14;82.15
34065;BME280;20339;49.754;20.158;2023-03-16T04:41:14;96935.08;;;-1.12;82.28
34065;BME280;20339;49.754;20.158;2023-03-16T04:43:43;96933.35;;;-1.09;82.03
34065;BME280;20339;49.754;20.158;2023-03-16T04:46:13;96937.08;;;-1.07;82.07
34065;BME280;20339;49.754;20.158;2023-03-16T04:48:42;96935.48;;;-1.07;81.79
34065;BME280;20339;49.754;20.158;2023-03-16T04:51:12;96933.04;;;-1.07;82.00
34065;BME280;20339;49.754;20.158;2023-03-16T04:53:41;96931.27;;;-1.04;81.73
34065;BME280;20339;49.754;20.158;2023-03-16T04:56:11;96933.77;;;-1.03;81.87
34065;BME280;20339;49.754;20.158;2023-03-16T04:58:46;96937.67;;;-1.03;81.91
34065;BME280;20339;49.754;20.158;2023-03-16T05:01:16;96940.73;;;-1.03;81.93
34065;BME280;20339;49.754;20.158;2023-03-16T05:03:46;96941.96;;;-1.05;81.73
34065;BME280;20339;49.754;20.158;2023-03-16T05:06:17;96943.85;;;-1.06;81.92
34065;BME280;20339;49.754;20.158;2023-03-16T05:08:48;96944.00;;;-1.06;81.94
34065;BME280;20339;49.754;20.158;2023-03-16T05:11:17;96946.96;;;-1.05;81.94
34065;BME280;20339;49.754;20.158;2023-03-16T05:13:47;96946.92;;;-1.04;81.79
34065;BME280;20339;49.754;20.158;2023-03-16T05:16:17;96952.02;;;-1.02;81.96
34065;BME280;20339;49.754;20.158;2023-03-16T05:18:47;96946.73;;;-1.01;81.91
34065;BME280;20339;49.754;20.158;2023-03-16T05:21:17;96951.65;;;-1.01;81.92
34065;BME280;20339;49.754;20.158;2023-03-16T05:23:47;96950.67;;;-0.96;81.68
34065;BME280;20339;49.754;20.158;2023-03-16T05:26:19;96956.09;;;-0.89;81.88
34065;BME280;20339;49.754;20.158;2023-03-16T05:28:48;96953.70;;;-0.85;81.89
34065;BME280;20339;49.754;20.158;2023-03-16T05:31:19;96953.55;;;-0.84;81.54
34065;BME280;20339;49.754;20.158;2023-03-16T05:33:50;96956.39;;;-0.83;81.23
34065;BME280;20339;49.754;20.158;2023-03-16T05:36:20;96957.67;;;-0.84;81.48
34065;BME280;20339;49.754;20.158;2023-03-16T05:38:51;96959.32;;;-0.83;81.26
34065;BME280;20339;49.754;20.158;2023-03-16T05:41:21;96963.80;;;-0.83;81.22
34065;BME280;20339;49.754;20.158;2023-03-16T05:43:51;96964.23;;;-0.82;81.14
34065;BME280;20339;49.754;20.158;2023-03-16T05:46:21;96969.59;;;-0.61;81.12
34065;BME280;20339;49.754;20.158;2023-03-16T05:48:51;96968.73;;;-0.21;80.91
34065;BME280;20339;49.754;20.158;2023-03-16T05:51:20;96972.45;;;0.53;79.81
34065;BME280;20339;49.754;20.158;2023-03-16T05:53:53;96973.28;;;1.30;78.65
34065;BME280;20339;49.754;20.158;2023-03-16T05:56:25;96972.59;;;2.01;76.52
34065;BME280;20339;49.754;20.158;2023-03-16T05:58:55;96973.16;;;2.61;74.44
34065;BME280;20339;49.754;20.158;2023-03-16T06:01:25;96974.72;;;2.90;71.97
34065;BME280;20339;49.754;20.158;2023-03-16T06:03:54;96980.96;;;3.16;71.44
34065;BME280;20339;49.754;20.158;2023-03-16T06:06:24;96979.11;;;3.13;69.61
34065;BME280;20339;49.754;20.158;2023-03-16T06:08:54;96983.96;;;2.42;69.13
34065;BME280;20339;49.754;20.158;2023-03-16T06:11:23;96994.12;;;1.74;69.25
34065;BME280;20339;49.754;20.158;2023-03-16T06:13:53;96997.29;;;1.34;70.31
34065;BME280;20339;49.754;20.158;2023-03-16T06:16:25;96999.30;;;1.19;70.92
34065;BME280;20339;49.754;20.158;2023-03-16T06:18:54;97001.63;;;1.10;70.87
34065;BME280;20339;49.754;20.158;2023-03-16T06:21:24;97004.33;;;1.00;71.08
34065;BME280;20339;49.754;20.158;2023-03-16T06:23:54;97007.07;;;0.89;71.18
34065;BME280;20339;49.754;20.158;2023-03-16T06:26:23;97011.12;;;0.90;71.46
34065;BME280;20339;49.754;20.158;2023-03-16T06:28:53;97011.68;;;0.96;71.56
34065;BME280;20339;49.754;20.158;2023-03-16T06:31:23;97013.92;;;1.00;71.54
34065;BME280;20339;49.754;20.158;2023-03-16T06:33:53;97016.50;;;0.99;71.30
34065;BME280;20339;49.754;20.158;2023-03-16T06:36:23;97018.31;;;0.95;71.18
34065;BME280;20339;49.754;20.158;2023-03-16T06:38:52;97025.08;;;1.01;71.36
34065;BME280;20339;49.754;20.158;2023-03-16T06:41:22;97028.00;;;1.23;71.53
34065;BME280;20339;49.754;20.158;2023-03-16T06:43:51;97025.34;;;1.88;70.92
34065;BME280;20339;49.754;20.158;2023-03-16T06:46:21;97029.48;;;2.16;69.58
34065;BME280;20339;49.754;20.158;2023-03-16T06:48:51;97027.27;;;2.09;69.17
34065;BME280;20339;49.754;20.158;2023-03-16T06:51:20;97032.19;;;2.07;68.82
34065;BME280;20339;49.754;20.158;2023-03-16T06:53:50;97035.05;;;2.13;68.99
34065;BME280;20339;49.754;20.158;2023-03-16T06:56:19;97036.56;;;2.16;68.77
34065;BME280;20339;49.754;20.158;2023-03-16T06:58:49;97040.07;;;2.20;68.50
34065;BME280;20339;49.754;20.158;2023-03-16T07:01:19;97047.54;;;2.06;67.97
34065;BME280;20339;49.754;20.158;2023-03-16T07:03:50;97046.15;;;1.97;68.13
34065;BME280;20339;49.754;20.158;2023-03-16T07:06:37;97050.88;;;2.06;68.12
34065;BME280;20339;49.754;20.158;2023-03-16T07:09:07;97045.19;;;2.45;68.23
34065;BME280;20339;49.754;20.158;2023-03-16T07:11:37;97042.52;;;3.65;67.08
34065;BME280;20339;49.754;20.158;2023-03-16T07:14:06;97047.83;;;4.73;65.90
34065;BME280;20339;49.754;20.158;2023-03-16T07:16:36;97048.82;;;6.09;63.17
34065;BME280;20339;49.754;20.158;2023-03-16T07:19:05;97046.16;;;7.07;60.44
34065;BME280;20339;49.754;20.158;2023-03-16T07:21:35;97050.30;;;7.75;58.41
34065;BME280;20339;49.754;20.158;2023-03-16T07:24:09;97046.73;;;8.49;57.53
34065;BME280;20339;49.754;20.158;2023-03-16T07:26:39;97051.25;;;9.09;54.87
34065;BME280;20339;49.754;20.158;2023-03-16T07:29:09;97054.26;;;9.43;53.63
34065;BME280;20339;49.754;20.158;2023-03-16T07:31:39;97053.88;;;9.77;52.32
34065;BME280;20339;49.754;20.158;2023-03-16T07:34:10;97053.96;;;9.48;50.76
34065;BME280;20339;49.754;20.158;2023-03-16T07:36:41;97060.42;;;9.71;51.06
34065;BME280;20339;49.754;20.158;2023-03-16T07:39:11;97061.28;;;10.31;49.83
34065;BME280;20339;49.754;20.158;2023-03-16T07:41:41;97066.91;;;10.83;49.20
34065;BME280;20339;49.754;20.158;2023-03-16T07:44:12;97070.32;;;11.21;49.71
34065;BME280;20339;49.754;20.158;2023-03-16T07:46:42;97068.04;;;12.39;50.13
34065;BME280;20339;49.754;20.158;2023-03-16T07:49:11;97065.51;;;13.29;47.44
34065;BME280;20339;49.754;20.158;2023-03-16T07:51:43;97068.02;;;13.17;45.59
34065;BME280;20339;49.754;20.158;2023-03-16T07:54:14;97064.49;;;12.81;44.49
34065;BME280;20339;49.754;20.158;2023-03-16T07:56:44;97062.41;;;12.99;45.19
34065;BME280;20339;49.754;20.158;2023-03-16T07:59:13;97063.35;;;13.85;45.99
34065;BME280;20339;49.754;20.158;2023-03-16T08:01:46;97058.29;;;15.41;46.30
34065;BME280;20339;49.754;20.158;2023-03-16T08:04:16;97057.39;;;15.24;39.09
34065;BME280;20339;49.754;20.158;2023-03-16T08:06:45;97061.80;;;12.70;39.65
34065;BME280;20339;49.754;20.158;2023-03-16T08:09:15;97070.02;;;10.36;41.65
34065;BME280;20339;49.754;20.158;2023-03-16T08:11:44;97067.36;;;8.48;43.42
34065;BME280;20339;49.754;20.158;2023-03-16T08:14:14;97076.31;;;7.14;44.64
34065;BME280;20339;49.754;20.158;2023-03-16T08:16:45;97081.92;;;5.62;46.45
34065;BME280;20339;49.754;20.158;2023-03-16T08:19:15;97085.51;;;4.99;48.54
34065;BME280;20339;49.754;20.158;2023-03-16T08:21:47;97081.01;;;4.69;49.07
34065;BME280;20339;49.754;20.158;2023-03-16T08:24:17;97085.48;;;4.23;50.13
34065;BME280;20339;49.754;20.158;2023-03-16T08:26:46;97088.39;;;4.01;50.68
34065;BME280;20339;49.754;20.158;2023-03-16T08:29:16;97088.94;;;5.21;51.37
34065;BME280;20339;49.754;20.158;2023-03-16T08:31:46;97090.59;;;5.14;49.65
34065;BME280;20339;49.754;20.158;2023-03-16T08:34:16;97089.62;;;4.85;50.49
34065;BME280;20339;49.754;20.158;2023-03-16T08:36:46;97097.70;;;5.31;51.95
34065;BME280;20339;49.754;20.158;2023-03-16T08:39:15;97086.05;;;8.23;52.73
34065;BME280;20339;49.754;20.158;2023-03-16T08:41:45;97086.40;;;10.86;49.51
34065;BME280;20339;49.754;20.158;2023-03-16T08:44:15;97090.59;;;10.28;44.58
34065;BME280;20339;49.754;20.158;2023-03-16T08:46:45;97093.89;;;9.39;44.79
34065;BME280;20339;49.754;20.158;2023-03-16T08:49:14;97096.20;;;10.02;44.65
34065;BME280;20339;49.754;20.158;2023-03-16T08:51:44;97092.56;;;9.91;44.76
34065;BME280;20339;49.754;20.158;2023-03-16T08:54:14;97095.13;;;8.10;43.41
34065;BME280;20339;49.754;20.158;2023-03-16T08:56:44;97104.79;;;6.58;45.67
34065;BME280;20339;49.754;20.158;2023-03-16T08:59:13;97107.23;;;5.78;46.29
34065;BME280;20339;49.754;20.158;2023-03-16T09:01:44;97109.34;;;5.05;47.32
34065;BME280;20339;49.754;20.158;2023-03-16T09:04:13;97110.52;;;4.56;48.13
34065;BME280;20339;49.754;20.158;2023-03-16T09:06:43;97110.53;;;4.27;49.02
34065;BME280;20339;49.754;20.158;2023-03-16T09:09:12;97112.11;;;5.21;51.44
34065;BME280;20339;49.754;20.158;2023-03-16T09:11:42;97108.84;;;6.64;51.46
34065;BME280;20339;49.754;20.158;2023-03-16T09:14:12;97104.77;;;7.35;48.84
34065;BME280;20339;49.754;20.158;2023-03-16T09:16:44;97094.76;;;7.11;46.36
34065;BME280;20339;49.754;20.158;2023-03-16T09:19:13;97108.02;;;6.10;47.14
34065;BME280;20339;49.754;20.158;2023-03-16T09:21:43;97116.02;;;5.62;47.78
34065;BME280;20339;49.754;20.158;2023-03-16T09:24:14;97119.61;;;5.49;48.23
34065;BME280;20339;49.754;20.158;2023-03-16T09:26:43;97113.38;;;5.48;48.53
34065;BME280;20339;49.754;20.158;2023-03-16T09:29:13;97116.67;;;5.39;48.82
34065;BME280;20339;49.754;20.158;2023-03-16T09:31:42;97119.98;;;5.28;49.01
34065;BME280;20339;49.754;20.158;2023-03-16T09:34:12;97120.86;;;5.23;48.74
34065;BME280;20339;49.754;20.158;2023-03-16T09:36:42;97124.18;;;4.99;47.95
34065;BME280;20339;49.754;20.158;2023-03-16T09:39:12;97122.96;;;4.40;48.49
34065;BME280;20339;49.754;20.158;2023-03-16T09:41:44;97127.67;;;3.94;49.29
34065;BME280;20339;49.754;20.158;2023-03-16T09:44:25;97129.08;;;3.68;49.60
34065;BME280;20339;49.754;20.158;2023-03-16T09:46:57;97124.88;;;3.58;50.43
34065;BME280;20339;49.754;20.158;2023-03-16T09:49:30;97128.96;;;3.50;51.33
34065;BME280;20339;49.754;20.158;2023-03-16T09:52:05;97123.15;;;3.51;50.72
34065;BME280;20339;49.754;20.158;2023-03-16T09:54:41;97125.80;;;3.62;50.78
34065;BME280;20339;49.754;20.158;2023-03-16T09:57:15;97128.19;;;3.92;50.15
34065;BME280;20339;49.754;20.158;2023-03-16T09:59:49;97129.95;;;3.85;50.30
34065;BME280;20339;49.754;20.158;2023-03-16T10:02:27;97131.16;;;3.85;51.09
34065;BME280;20339;49.754;20.158;2023-03-16T10:05:02;97139.26;;;3.67;51.55
34065;BME280;20339;49.754;20.158;2023-03-16T10:07:36;97142.61;;;3.53;51.94
34065;BME280;20339;49.754;20.158;2023-03-16T10:10:17;97146.80;;;3.40;52.53
34065;BME280;20339;49.754;20.158;2023-03-16T10:12:49;97149.57;;;3.41;52.88
34065;BME280;20339;49.754;20.158;2023-03-16T10:15:21;97146.07;;;3.40;52.30
34065;BME280;20339;49.754;20.158;2023-03-16T10:17:55;97150.49;;;3.30;51.23
34065;BME280;20339;49.754;20.158;2023-03-16T10:20:27;97151.63;;;3.29;51.74
34065;BME280;20339;49.754;20.158;2023-03-16T10:23:00;97146.56;;;3.56;51.14
34065;BME280;20339;49.754;20.158;2023-03-16T10:25:38;97136.20;;;4.02;50.18
34065;BME280;20339;49.754;20.158;2023-03-16T10:28:10;97130.13;;;4.38;48.89
34065;BME280;20339;49.754;20.158;2023-03-16T10:30:42;97129.99;;;4.82;49.83
34065;BME280;20339;49.754;20.158;2023-03-16T10:33:15;97129.66;;;5.29;49.72
34065;BME280;20339;49.754;20.158;2023-03-16T10:35:47;97131.21;;;5.54;49.11
34065;BME280;20339;49.754;20.158;2023-03-16T10:38:32;97132.54;;;5.46;47.97
34065;BME280;20339;49.754;20.158;2023-03-16T10:41:13;97131.61;;;4.96;47.16
34065;BME280;20339;49.754;20.158;2023-03-16T10:43:48;97138.01;;;4.94;48.10
34065;BME280;20339;49.754;20.158;2023-03-16T10:46:18;97141.00;;;4.90;48.08
34065;BME280;20339;49.754;20.158;2023-03-16T10:48:52;97141.46;;;4.80;48.29
34065;BME280;20339;49.754;20.158;2023-03-16T10:51:27;97142.08;;;4.63;47.86
34065;BME280;20339;49.754;20.158;2023-03-16T10:54:00;97142.87;;;4.24;46.92
34065;BME280;20339;49.754;20.158;2023-03-16T10:56:33;97149.85;;;4.22;48.17
34065;BME280;20339;49.754;20.158;2023-03-16T10:59:14;97145.14;;;4.82;49.29
34065;BME280;20339;49.754;20.158;2023-03-16T11:01:46;97136.48;;;5.57;49.41
34065;BME280;20339;49.754;20.158;2023-03-16T11:04:18;97134.63;;;6.02;47.88
34065;BME280;20339;49.754;20.158;2023-03-16T11:06:51;97135.38;;;6.11;47.61
34065;BME280;20339;49.754;20.158;2023-03-16T11:09:23;97142.52;;;5.89;46.90
34065;BME280;20339;49.754;20.158;2023-03-16T11:11:54;97144.56;;;5.54;46.13
34065;BME280;20339;49.754;20.158;2023-03-16T11:14:26;97140.08;;;5.55;46.97
34065;BME280;20339;49.754;20.158;2023-03-16T11:17:01;97134.20;;;5.66;47.12
34065;BME280;20339;49.754;20.158;2023-03-16T11:19:33;97130.64;;;6.14;47.79
34065;BME280;20339;49.754;20.158;2023-03-16T11:22:04;97130.10;;;6.52;47.39
34065;BME280;20339;49.754;20.158;2023-03-16T11:24:39;97132.73;;;6.82;47.88
34065;BME280;20339;49.754;20.158;2023-03-16T11:27:16;97129.87;;;7.18;47.33
34065;BME280;20339;49.754;20.158;2023-03-16T11:29:50;97123.33;;;6.91;44.11
34065;BME280;20339;49.754;20.158;2023-03-16T11:32:26;97128.27;;;6.20;44.63
34065;BME280;20339;49.754;20.158;2023-03-16T11:34:58;97135.10;;;5.62;44.65
34065;BME280;20339;49.754;20.158;2023-03-16T11:37:37;97129.88;;;5.20;45.34
34065;BME280;20339;49.754;20.158;2023-03-16T11:40:15;97127.09;;;4.84;45.86
34065;BME280;20339;49.754;20.158;2023-03-16T11:42:51;97126.30;;;4.67;46.38
34065;BME280;20339;49.754;20.158;2023-03-16T11:45:25;97129.20;;;4.72;46.70
34065;BME280;20339;49.754;20.158;2023-03-16T11:48:02;97121.23;;;4.82;46.73
34065;BME280;20339;49.754;20.158;2023-03-16T11:50:34;97122.06;;;4.75;46.70
34065;BME280;20339;49.754;20.158;2023-03-16T11:53:08;97117.06;;;4.89;46.70
34065;BME280;20339;49.754;20.158;2023-03-16T11:55:43;97124.30;;;4.97;47.00
34065;BME280;20339;49.754;20.158;2023-03-16T11:58:23;97128.59;;;5.20;47.27
34065;BME280;20339;49.754;20.158;2023-03-16T12:00:59;97126.45;;;5.17;46.17
34065;BME280;20339;49.754;20.158;2023-03-16T12:03:36;97133.20;;;4.98;47.00
34065;BME280;20339;49.754;20.158;2023-03-16T12:06:15;97136.88;;;4.98;46.95
34065;BME280;20339;49.754;20.158;2023-03-16T12:09:03;97133.56;;;5.00;47.25
34065;BME280;20339;49.754;20.158;2023-03-16T12:11:43;97131.27;;;4.99;47.35
34065;BME280;20339;49.754;20.158;2023-03-16T12:14:17;97129.27;;;4.75;46.78
34065;BME280;20339;49.754;20.158;2023-03-16T12:16:52;97124.52;;;4.61;47.49
34065;BME280;20339;49.754;20.158;2023-03-16T12:19:25;97129.02;;;4.51;47.45
34065;BME280;20339;49.754;20.158;2023-03-16T12:22:01;97123.84;;;4.58;47.74
34065;BME280;20339;49.754;20.158;2023-03-16T12:24:36;97124.67;;;5.07;48.12
34065;BME280;20339;49.754;20.158;2023-03-16T12:27:09;97126.48;;;5.48;47.70
34065;BME280;20339;49.754;20.158;2023-03-16T12:29:43;97122.77;;;5.80;46.85
34065;BME280;20339;49.754;20.158;2023-03-16T12:32:17;97124.54;;;5.87;46.16
34065;BME280;20339;49.754;20.158;2023-03-16T12:34:51;97115.52;;;5.50;45.02
34065;BME280;20339;49.754;20.158;2023-03-16T12:37:25;97117.33;;;4.93;45.37
34065;BME280;20339;49.754;20.158;2023-03-16T12:40:03;97134.45;;;4.76;46.48
34065;BME280;20339;49.754;20.158;2023-03-16T12:42:41;97137.78;;;4.75;47.23
34065;BME280;20339;49.754;20.158;2023-03-16T12:45:18;97137.48;;;4.75;47.22
34065;BME280;20339;49.754;20.158;2023-03-16T12:47:54;97143.63;;;4.56;47.63
34065;BME280;20339;49.754;20.158;2023-03-16T12:50:26;97145.94;;;4.43;48.06
34065;BME280;20339;49.754;20.158;2023-03-16T12:52:56;97145.55;;;4.44;48.32
34065;BME280;20339;49.754;20.158;2023-03-16T12:55:38;97141.33;;;4.54;48.35
34065;BME280;20339;49.754;20.158;2023-03-16T12:58:08;97142.92;;;4.80;48.48
34065;BME280;20339;49.754;20.158;2023-03-16T13:00:40;97137.32;;;5.16;48.45
34065;BME280;20339;49.754;20.158;2023-03-16T13:03:12;97129.92;;;5.50;47.72
34065;BME280;20339;49.754;20.158;2023-03-16T13:05:45;97132.72;;;5.61;47.00
34065;BME280;20339;49.754;20.158;2023-03-16T13:08:18;97137.62;;;5.88;46.50
34065;BME280;20339;49.754;20.158;2023-03-16T13:11:00;97138.30;;;6.09;46.54
34065;BME280;20339;49.754;20.158;2023-03-16T13:13:30;97127.52;;;6.47;47.25
34065;BME280;20339;49.754;20.158;2023-03-16T13:16:02;97136.40;;;6.37;46.02
34065;BME280;20339;49.754;20.158;2023-03-16T13:18:37;97138.23;;;5.93;46.36
34065;BME280;20339;49.754;20.158;2023-03-16T13:21:15;97135.02;;;5.71;46.63